Jill Carolyn — WDC2001 — position and weather

sailwx.info

Track history (hours):
 
Tides and Currents Weather Stations Pressure Air Temp Water Temp Dewpoint Dewpoint Depression Visibility Wind Speed Wind Dir Waves Ship Positions

Jill Carolyn

Owner: American River Transportation Company, St Louis, MO. More information available from US FCC via Universal Licensing System and Coast Guard Vessel Documentation Center.

Last reported at 2018-Feb-23 22:44 UTC. Time now 2018-Feb-25 21:52 UTC.
Position N 38°35' W 090°13'.

Length 20 m.

Type: Towing. MMSI: 366986320.

Date/timePositionNaut miles runAvg speedWind from/ knotsBaromVisibWave heightAir tempDewpointWater temp
2018-Feb-23 22:44N 38°35' W 090°13'2 2.6
2018-Feb-23 22:09N 38°36' W 090°12'0 2.0
2018-Feb-23 21:58N 38°36' W 090°12'0 0.1
2018-Feb-23 21:22N 38°36' W 090°12'0 0.2
2018-Feb-23 20:59N 38°36' W 090°12'1 0.4
2018-Feb-23 19:37N 38°36' W 090°12'1 1.5
2018-Feb-23 19:17N 38°36' W 090°12'0 0.9
2018-Feb-23 19:00N 38°36' W 090°12'1 0.5
2018-Feb-23 17:19N 38°35' W 090°13'1 3.8
2018-Feb-23 16:59N 38°36' W 090°12'2 1.8
2018-Feb-23 15:55N 38°35' W 090°13'1 0.0
2018-Feb-21 20:53N 38°35' W 090°12'0 1.0
2018-Feb-21 20:28N 38°36' W 090°12'0 0.6
2018-Feb-21 20:01N 38°36' W 090°12'1 1.0
2018-Feb-21 19:28N 38°35' W 090°12'0 0.2
2018-Feb-21 17:44N 38°36' W 090°12'0 1.4
2018-Feb-21 17:30N 38°36' W 090°12'0 0.0
2018-Feb-21 16:26N 38°36' W 090°12'1 0.3
2018-Feb-21 13:38N 38°35' W 090°12'1 0.0
2018-Feb-19 13:55N 38°36' W 090°12'0 0.2
2018-Feb-19 13:30N 38°36' W 090°12'0 0.0
2018-Feb-17 16:28N 38°36' W 090°12'0 0.0
2018-Feb-17 14:14N 38°36' W 090°12'1 3.2
2018-Feb-17 13:58N 38°37' W 090°11'1 0.0
2018-Feb-16 07:30N 38°36' W 090°12'0 0.9
2018-Feb-16 06:57N 38°36' W 090°11'1 0.2
2018-Feb-16 02:56N 38°36' W 090°12'1 2.0
2018-Feb-16 02:22N 38°37' W 090°11'0 0.0
2018-Feb-16 01:55N 38°37' W 090°11'3 0.1
2018-Feb-15 03:47N 38°40' W 090°11'4 0.4
2018-Feb-14 17:19N 38°36' W 090°12'1 3.6
2018-Feb-14 16:56N 38°37' W 090°11'1 1.6
2018-Feb-14 16:13N 38°36' W 090°12'0 0.8
2018-Feb-14 15:58N 38°36' W 090°12'1 0.1
2018-Feb-14 09:14N 38°36' W 090°11'1 3.4
2018-Feb-14 09:00N 38°37' W 090°11'4 8.1
2018-Feb-14 08:30N 38°41' W 090°12'0 0.2
2018-Feb-14 07:48N 38°41' W 090°12'0 0.0
2018-Feb-14 07:30N 38°41' W 090°12'2 4.6
2018-Feb-14 07:00N 38°39' W 090°11'3 5.7
2018-Feb-14 06:28N 38°36' W 090°12'0 0.2
2018-Feb-14 04:44N 38°36' W 090°12'  
Track history (hours):
 
Tides and Currents Weather Stations Pressure Air Temp Water Temp Dewpoint Dewpoint Depression Visibility Wind Speed Wind Dir Waves Ship Positions

Jill Carolyn

Owner: American River Transportation Company, St Louis, MO. More information available from US FCC via Universal Licensing System and Coast Guard Vessel Documentation Center.

Last reported at 2018-Feb-23 22:44 UTC. Time now 2018-Feb-25 21:52 UTC.
Position N 38°35' W 090°13'.

Length 20 m.

Type: Towing. MMSI: 366986320.

Date/timePositionNaut miles runAvg speedWind from/ knotsBaromVisibWave heightAir tempDewpointWater temp
2018-Feb-23 22:44N 38°35' W 090°13'2 2.6
2018-Feb-23 22:09N 38°36' W 090°12'0 2.0
2018-Feb-23 21:58N 38°36' W 090°12'0 0.1
2018-Feb-23 21:22N 38°36' W 090°12'0 0.2
2018-Feb-23 20:59N 38°36' W 090°12'1 0.4
2018-Feb-23 19:37N 38°36' W 090°12'1 1.5
2018-Feb-23 19:17N 38°36' W 090°12'0 0.9
2018-Feb-23 19:00N 38°36' W 090°12'1 0.5
2018-Feb-23 17:19N 38°35' W 090°13'1 3.8
2018-Feb-23 16:59N 38°36' W 090°12'2 1.8
2018-Feb-23 15:55N 38°35' W 090°13'1 0.0
2018-Feb-21 20:53N 38°35' W 090°12'0 1.0
2018-Feb-21 20:28N 38°36' W 090°12'0 0.6
2018-Feb-21 20:01N 38°36' W 090°12'1 1.0
2018-Feb-21 19:28N 38°35' W 090°12'0 0.2
2018-Feb-21 17:44N 38°36' W 090°12'0 1.4
2018-Feb-21 17:30N 38°36' W 090°12'0 0.0
2018-Feb-21 16:26N 38°36' W 090°12'1 0.3
2018-Feb-21 13:38N 38°35' W 090°12'1 0.0
2018-Feb-19 13:55N 38°36' W 090°12'0 0.2
2018-Feb-19 13:30N 38°36' W 090°12'0 0.0
2018-Feb-17 16:28N 38°36' W 090°12'0 0.0
2018-Feb-17 14:14N 38°36' W 090°12'1 3.2
2018-Feb-17 13:58N 38°37' W 090°11'1 0.0
2018-Feb-16 07:30N 38°36' W 090°12'0 0.9
2018-Feb-16 06:57N 38°36' W 090°11'1 0.2
2018-Feb-16 02:56N 38°36' W 090°12'1 2.0
2018-Feb-16 02:22N 38°37' W 090°11'0 0.0
2018-Feb-16 01:55N 38°37' W 090°11'3 0.1
2018-Feb-15 03:47N 38°40' W 090°11'4 0.4
2018-Feb-14 17:19N 38°36' W 090°12'1 3.6
2018-Feb-14 16:56N 38°37' W 090°11'1 1.6
2018-Feb-14 16:13N 38°36' W 090°12'0 0.8
2018-Feb-14 15:58N 38°36' W 090°12'1 0.1
2018-Feb-14 09:14N 38°36' W 090°11'1 3.4
2018-Feb-14 09:00N 38°37' W 090°11'4 8.1
2018-Feb-14 08:30N 38°41' W 090°12'0 0.2
2018-Feb-14 07:48N 38°41' W 090°12'0 0.0
2018-Feb-14 07:30N 38°41' W 090°12'2 4.6
2018-Feb-14 07:00N 38°39' W 090°11'3 5.7
2018-Feb-14 06:28N 38°36' W 090°12'0 0.2
2018-Feb-14 04:44N 38°36' W 090°12'  

Dump ship's entire track history